Terminal Aerodrome Forecast
Issued by NWS Albany, NY

Home | Current Version | Previous Version | Text Only | Print | Product List | Glossary On
Versions: 1 2 3 4 5 6 7 8 9 10 11 12 13 14
000
FTUS41 KALY 262320
TAFGFL
TAF
KGFL 262320Z 2700/2724 33006KT P6SM OVC070
     FM270200 VRB03KT P6SM OVC060
     FM270600 VRB03KT P6SM VCSH OVC045
     FM271400 02007KT P6SM VCSH OVC045
     FM271800 02008G14KT P6SM -SHRA OVC045=

USA.gov is the U.S. government's official web portal to all federal, state and local government web resources and services.